createdAt,value
2023-03-11T00:03:21.560Z,2.50
2023-03-11T00:06:43.273Z,2.40
2023-03-11T00:10:05.373Z,2.40
2023-03-11T00:13:28.771Z,2.40
2023-03-11T00:16:50.417Z,2.40
2023-03-11T00:20:16.542Z,2.30
2023-03-11T00:23:38.160Z,2.30
2023-03-11T00:26:59.740Z,2.30
2023-03-11T00:30:23.342Z,2.20
2023-03-11T00:33:44.928Z,2.20
2023-03-11T00:37:06.555Z,2.10
2023-03-11T00:43:50.058Z,2.10
2023-03-11T00:47:13.169Z,2.20
2023-03-11T00:50:35.560Z,2.30
2023-03-11T00:53:57.153Z,2.40
2023-03-11T00:57:18.752Z,2.40
2023-03-11T01:00:40.698Z,2.30
2023-03-11T01:04:03.669Z,2.40
2023-03-11T01:07:25.263Z,2.40
2023-03-11T01:10:46.894Z,2.50
2023-03-11T01:14:08.672Z,2.50
2023-03-11T01:17:30.269Z,2.50
2023-03-11T01:20:53.243Z,2.50
2023-03-11T01:24:14.826Z,2.60
2023-03-11T01:27:36.393Z,2.60
2023-03-11T01:30:57.988Z,2.70
2023-03-11T01:34:19.606Z,2.60
2023-03-11T01:37:42.524Z,2.70
2023-03-11T01:41:04.348Z,2.70
2023-03-11T01:44:25.973Z,2.60
2023-03-11T01:47:47.575Z,2.60
2023-03-11T01:51:09.324Z,2.60
2023-03-11T01:54:33.454Z,2.50
2023-03-11T01:57:55.299Z,2.50
2023-03-11T02:01:16.983Z,2.40
2023-03-11T02:04:38.858Z,2.30
2023-03-11T02:08:00.643Z,2.20
2023-03-11T02:11:24.714Z,2.10
2023-03-11T02:14:47.948Z,2.00
2023-03-11T02:18:11.370Z,2.00
2023-03-11T02:21:33.716Z,1.90
2023-03-11T02:24:59.775Z,2.00
2023-03-11T02:28:23.042Z,2.00
2023-03-11T02:31:45.782Z,1.90
2023-03-11T02:35:07.614Z,1.90
2023-03-11T02:38:29.240Z,1.90
2023-03-11T02:41:50.827Z,1.80
2023-03-11T02:45:15.156Z,1.70
2023-03-11T02:48:37.748Z,1.70
2023-03-11T02:51:59.327Z,1.60
2023-03-11T02:55:21.198Z,1.50
2023-03-11T02:58:42.838Z,1.50
2023-03-11T03:02:05.851Z,1.50
2023-03-11T03:05:27.464Z,1.50
2023-03-11T03:08:49.053Z,1.40
2023-03-11T03:12:10.674Z,1.30
2023-03-11T03:15:32.282Z,1.30
2023-03-11T03:18:55.224Z,1.20
2023-03-11T03:22:16.895Z,1.10
2023-03-11T03:25:41.890Z,1.00
2023-03-11T03:29:03.805Z,0.90
2023-03-11T03:32:25.431Z,0.90
2023-03-11T03:35:48.445Z,0.80
2023-03-11T03:39:10.037Z,0.70
2023-03-11T03:42:31.620Z,0.70
2023-03-11T03:45:56.992Z,0.60
2023-03-11T03:49:18.703Z,0.60
2023-03-11T03:52:41.664Z,0.50
2023-03-11T03:56:03.681Z,0.50
2023-03-11T03:59:25.258Z,0.40
2023-03-11T04:02:46.846Z,0.30
2023-03-11T04:06:09.583Z,0.20
2023-03-11T04:09:32.596Z,0.20
2023-03-11T04:12:54.204Z,0.10
2023-03-11T04:16:16.766Z,0.10
2023-03-11T04:19:38.771Z,0.10
2023-03-11T04:23:00.370Z,0.00
2023-03-11T04:26:23.305Z,0.00
2023-03-11T04:29:44.890Z,0.00
2023-03-11T04:33:06.621Z,0.00
2023-03-11T04:36:28.341Z,0.00
2023-03-11T04:39:50.580Z,0.00
2023-03-11T04:43:13.544Z,-0.10
2023-03-11T04:46:35.183Z,0.00
2023-03-11T04:49:56.801Z,-0.10
2023-03-11T04:53:18.420Z,-0.20
2023-03-11T04:56:40.071Z,-0.20
2023-03-11T05:00:03.663Z,-0.20
2023-03-11T05:03:25.521Z,-0.20
2023-03-11T05:06:47.178Z,-0.20
2023-03-11T05:10:09.524Z,-0.30
2023-03-11T05:13:31.156Z,-0.30
2023-03-11T05:16:54.114Z,-0.30
2023-03-11T05:20:16.497Z,-0.40
2023-03-11T05:23:38.195Z,-0.40
2023-03-11T05:26:59.796Z,-0.40
2023-03-11T05:30:21.381Z,-0.40
2023-03-11T05:33:44.342Z,-0.40
2023-03-11T05:37:05.948Z,-0.40
2023-03-11T05:40:27.584Z,-0.40
2023-03-11T05:43:49.231Z,-0.30
2023-03-11T05:47:10.798Z,-0.40
2023-03-11T05:50:33.733Z,-0.30
2023-03-11T05:53:55.432Z,-0.30
2023-03-11T05:57:17.126Z,-0.30
2023-03-11T06:00:38.807Z,-0.30
2023-03-11T06:04:00.584Z,-0.20
2023-03-11T06:07:23.611Z,-0.20
2023-03-11T06:10:46.826Z,-0.20
2023-03-11T06:14:11.148Z,-0.20
2023-03-11T06:17:32.765Z,-0.10
2023-03-11T06:20:54.687Z,-0.10
2023-03-11T06:24:17.630Z,-0.10
2023-03-11T06:27:39.340Z,0.10
2023-03-11T06:31:06.621Z,0.10
2023-03-11T06:34:28.194Z,0.20
2023-03-11T06:37:49.804Z,0.30
2023-03-11T06:41:12.917Z,0.30
2023-03-11T06:44:34.649Z,0.40
2023-03-11T06:47:56.257Z,0.40
2023-03-11T06:51:18.531Z,0.50
2023-03-11T06:54:40.171Z,0.60
2023-03-11T06:58:03.095Z,0.70
2023-03-11T07:01:25.762Z,0.80
2023-03-11T07:04:49.101Z,1.00
2023-03-11T07:08:10.790Z,1.10
2023-03-11T07:11:32.390Z,1.10
2023-03-11T07:14:55.995Z,1.30
2023-03-11T07:18:17.680Z,1.40
2023-03-11T07:21:39.860Z,1.50
2023-03-11T07:25:01.651Z,1.70
2023-03-11T07:28:23.461Z,1.70
2023-03-11T07:31:46.524Z,1.80
2023-03-11T07:35:08.657Z,2.00
2023-03-11T07:38:30.301Z,2.00
2023-03-11T07:41:51.894Z,2.00
2023-03-11T07:45:13.998Z,1.90
2023-03-11T07:48:37.736Z,1.90
2023-03-11T07:51:59.338Z,2.00
2023-03-11T07:55:20.958Z,2.10
2023-03-11T07:58:45.236Z,2.30
2023-03-11T08:02:07.551Z,2.70
2023-03-11T08:05:32.975Z,4.20
2023-03-11T08:08:54.593Z,6.50
2023-03-11T08:12:16.347Z,8.60
2023-03-11T08:15:38.108Z,9.90
2023-03-11T08:18:59.775Z,10.50
2023-03-11T08:22:22.755Z,10.90
2023-03-11T08:25:44.337Z,11.10
2023-03-11T08:29:06.223Z,11.70
2023-03-11T08:32:27.851Z,11.60
2023-03-11T08:35:49.481Z,12.30
2023-03-11T08:39:13.185Z,12.80
2023-03-11T08:42:36.831Z,12.80
2023-03-11T08:45:59.777Z,12.80
2023-03-11T08:49:21.376Z,12.80
2023-03-11T08:52:43.145Z,11.70
2023-03-11T08:56:06.385Z,11.70
2023-03-11T08:59:27.958Z,11.40
2023-03-11T09:02:49.618Z,11.80
2023-03-11T09:06:13.589Z,11.90
2023-03-11T09:09:35.189Z,12.10
2023-03-11T09:12:58.154Z,12.10
2023-03-11T09:16:24.245Z,12.50
2023-03-11T09:19:45.845Z,12.10
2023-03-11T09:23:07.806Z,11.40
2023-03-11T09:26:29.504Z,11.40
2023-03-11T09:29:52.523Z,11.30
2023-03-11T09:33:14.341Z,10.50
2023-03-11T09:36:36.229Z,11.20
2023-03-11T09:39:57.805Z,10.90
2023-03-11T09:43:25.471Z,10.20
2023-03-11T09:47:08.214Z,8.60
2023-03-11T09:50:32.698Z,7.30
2023-03-11T09:53:56.371Z,6.10
2023-03-11T09:57:21.719Z,5.70
2023-03-11T10:00:43.945Z,5.30
2023-03-11T10:04:08.501Z,5.40
2023-03-11T10:07:34.120Z,5.50
2023-03-11T10:11:00.113Z,5.60
2023-03-11T10:14:30.550Z,5.90
2023-03-11T10:18:01.198Z,5.80
2023-03-11T10:21:27.630Z,5.50
2023-03-11T10:24:57.940Z,6.10
2023-03-11T10:28:21.299Z,7.00
2023-03-11T10:31:44.069Z,7.70
2023-03-11T10:35:07.261Z,7.70
2023-03-11T10:38:30.774Z,7.20
2023-03-11T10:41:54.985Z,6.70
2023-03-11T10:45:16.711Z,6.80
2023-03-11T10:48:38.308Z,7.30
2023-03-11T10:52:02.737Z,7.60
2023-03-11T10:55:24.426Z,7.50
2023-03-11T10:58:49.432Z,7.50
2023-03-11T11:02:21.218Z,7.50
2023-03-11T11:05:43.050Z,7.40
2023-03-11T11:09:14.298Z,6.90
2023-03-11T11:12:36.712Z,6.70
2023-03-11T11:16:01.125Z,6.30
2023-03-11T11:19:22.713Z,6.30
2023-03-11T11:22:48.783Z,6.40
2023-03-11T11:26:16.099Z,6.40
2023-03-11T11:29:39.170Z,6.80
2023-03-11T11:33:21.450Z,6.70
2023-03-11T11:36:44.782Z,6.80
2023-03-11T11:40:07.752Z,6.90
2023-03-11T11:43:36.160Z,7.00
2023-03-11T11:46:59.670Z,7.20
2023-03-11T11:50:24.967Z,7.50
2023-03-11T11:53:51.500Z,7.70
2023-03-11T11:57:13.994Z,7.70
2023-03-11T12:00:39.211Z,7.30
2023-03-11T12:04:12.839Z,7.20
2023-03-11T12:07:40.580Z,7.20
2023-03-11T12:11:04.828Z,7.10
2023-03-11T12:14:30.866Z,6.80
2023-03-11T12:17:55.975Z,6.70
2023-03-11T12:21:24.962Z,6.20
2023-03-11T12:24:52.277Z,6.30
2023-03-11T12:28:22.486Z,6.30
2023-03-11T12:31:45.160Z,6.40
2023-03-11T12:35:18.463Z,6.50
2023-03-11T12:38:42.944Z,6.50
2023-03-11T12:42:17.844Z,6.10
2023-03-11T12:45:51.236Z,5.80
2023-03-11T12:49:14.840Z,5.50
2023-03-11T12:52:51.545Z,5.50
2023-03-11T12:56:24.779Z,5.60
2023-03-11T13:00:06.404Z,5.60
2023-03-11T13:03:47.546Z,5.40
2023-03-11T13:07:27.246Z,5.30
2023-03-11T13:10:49.399Z,5.10
2023-03-11T13:14:21.420Z,5.10
2023-03-11T13:17:43.112Z,5.10
2023-03-11T13:21:26.088Z,5.30
2023-03-11T13:24:50.805Z,5.40
2023-03-11T13:28:29.561Z,5.60
2023-03-11T13:32:02.058Z,5.80
2023-03-11T13:35:40.489Z,5.90
2023-03-11T13:39:11.876Z,5.90
2023-03-11T13:42:36.770Z,5.70
2023-03-11T13:46:00.989Z,5.80
2023-03-11T13:49:25.812Z,5.90
2023-03-11T13:52:48.883Z,5.90
2023-03-11T13:56:16.982Z,5.90
2023-03-11T13:59:39.949Z,6.00
2023-03-11T14:03:02.412Z,6.00
2023-03-11T14:06:24.227Z,6.10
2023-03-11T14:09:45.843Z,6.20
2023-03-11T14:13:15.030Z,6.20
2023-03-11T14:16:38.396Z,6.30
2023-03-11T14:20:04.087Z,6.50
2023-03-11T14:23:28.389Z,6.40
2023-03-11T14:26:50.792Z,6.30
2023-03-11T14:30:18.060Z,6.40
2023-03-11T14:33:41.007Z,6.30
2023-03-11T14:37:02.640Z,6.40
2023-03-11T14:40:28.661Z,6.40
2023-03-11T14:43:52.645Z,6.40
2023-03-11T14:47:18.201Z,6.60
2023-03-11T14:50:42.899Z,6.50
2023-03-11T14:54:06.501Z,6.50
2023-03-11T14:57:34.018Z,6.40
2023-03-11T15:00:58.119Z,6.50
2023-03-11T15:04:25.316Z,6.50
2023-03-11T15:07:50.459Z,6.70
2023-03-11T15:11:19.200Z,6.90
2023-03-11T15:14:48.927Z,7.00
2023-03-11T15:18:20.008Z,7.00
2023-03-11T15:21:45.103Z,7.00
2023-03-11T15:25:15.988Z,7.00
2023-03-11T15:28:41.718Z,6.90
2023-03-11T15:32:20.146Z,6.90
2023-03-11T15:35:45.858Z,6.80
2023-03-11T15:39:12.291Z,6.70
2023-03-11T15:42:35.246Z,6.50
2023-03-11T15:45:57.603Z,6.30
2023-03-11T15:49:19.424Z,6.30
2023-03-11T15:52:41.093Z,6.20
2023-03-11T15:56:10.357Z,6.10
2023-03-11T15:59:33.952Z,6.00
2023-03-11T16:02:55.679Z,6.00
2023-03-11T16:06:17.280Z,5.90
2023-03-11T16:09:38.932Z,5.80
2023-03-11T16:13:00.653Z,5.80
2023-03-11T16:16:23.666Z,5.60
2023-03-11T16:19:47.426Z,5.50
2023-03-11T16:23:12.738Z,5.50
2023-03-11T16:26:34.784Z,5.40
2023-03-11T16:29:58.505Z,5.40
2023-03-11T16:33:21.469Z,5.30
2023-03-11T16:36:43.098Z,5.30
2023-03-11T16:40:06.251Z,5.20
2023-03-11T16:43:28.590Z,5.20
2023-03-11T16:46:50.284Z,5.20
2023-03-11T16:50:13.275Z,5.10
2023-03-11T16:53:34.870Z,5.00
2023-03-11T16:56:57.882Z,5.00
2023-03-11T17:00:19.645Z,4.90
2023-03-11T17:03:42.949Z,4.90
2023-03-11T17:07:07.498Z,4.80
2023-03-11T17:10:29.133Z,4.80
2023-03-11T17:13:50.786Z,4.70
2023-03-11T17:17:12.575Z,4.60
2023-03-11T17:20:34.161Z,4.50
2023-03-11T17:23:57.103Z,4.50
2023-03-11T17:27:19.051Z,4.40
2023-03-11T17:30:43.762Z,4.30
2023-03-11T17:34:05.336Z,4.30
2023-03-11T17:37:29.414Z,4.30
2023-03-11T17:40:52.388Z,4.20
2023-03-11T17:44:16.962Z,4.20
2023-03-11T17:47:38.650Z,4.10
2023-03-11T17:51:04.025Z,4.00
2023-03-11T17:54:25.700Z,3.90
2023-03-11T17:57:48.741Z,3.80
2023-03-11T18:01:13.390Z,3.70
2023-03-11T18:04:35.058Z,3.60
2023-03-11T18:07:56.638Z,3.40
2023-03-11T18:11:19.536Z,3.30
2023-03-11T18:14:42.547Z,3.30
2023-03-11T18:18:04.279Z,3.20
2023-03-11T18:21:26.912Z,3.10
2023-03-11T18:24:48.512Z,3.00
2023-03-11T18:28:10.144Z,2.90
2023-03-11T18:31:33.148Z,2.80
2023-03-11T18:34:54.969Z,2.70
2023-03-11T18:38:16.595Z,2.70
2023-03-11T18:41:38.330Z,2.60
2023-03-11T18:44:59.921Z,2.50
2023-03-11T18:48:23.182Z,2.50
2023-03-11T18:51:44.796Z,2.40
2023-03-11T18:55:06.618Z,2.40
2023-03-11T18:58:28.899Z,2.30
2023-03-11T19:01:50.730Z,2.20
2023-03-11T19:05:13.998Z,2.20
2023-03-11T19:08:35.985Z,2.10
2023-03-11T19:11:57.617Z,2.10
2023-03-11T19:15:19.425Z,2.00
2023-03-11T19:18:41.164Z,2.00
2023-03-11T19:22:04.155Z,1.90
2023-03-11T19:25:27.797Z,1.80
2023-03-11T19:28:49.588Z,1.70
2023-03-11T19:32:11.162Z,1.50
2023-03-11T19:35:32.825Z,1.40
2023-03-11T19:38:55.880Z,1.30
2023-03-11T19:42:17.664Z,1.20
2023-03-11T19:45:39.359Z,1.10
2023-03-11T19:49:00.946Z,1.00
2023-03-11T19:52:22.812Z,0.90
2023-03-11T19:55:46.682Z,0.80
2023-03-11T19:59:08.352Z,0.80
2023-03-11T20:02:30.196Z,0.80
2023-03-11T20:05:52.640Z,0.70
2023-03-11T20:09:14.766Z,0.70
2023-03-11T20:12:39.365Z,0.70
2023-03-11T20:16:06.294Z,0.60
2023-03-11T20:19:27.950Z,0.60
2023-03-11T20:22:49.658Z,0.50
2023-03-11T20:26:12.525Z,0.50
2023-03-11T20:29:35.655Z,0.40
2023-03-11T20:32:57.336Z,0.40
2023-03-11T20:36:20.502Z,0.30
2023-03-11T20:39:42.129Z,0.30
2023-03-11T20:43:03.784Z,0.20
2023-03-11T20:46:30.321Z,0.20
2023-03-11T20:49:52.183Z,0.10
2023-03-11T20:53:14.482Z,0.10
2023-03-11T20:56:36.085Z,0.00
2023-03-11T20:59:57.716Z,0.00
2023-03-11T21:03:20.948Z,0.00
2023-03-11T21:06:42.701Z,0.00
2023-03-11T21:10:05.256Z,-0.10
2023-03-11T21:13:27.172Z,-0.10
2023-03-11T21:16:49.004Z,-0.10
2023-03-11T21:20:12.609Z,-0.10
2023-03-11T21:23:34.406Z,-0.10
2023-03-11T21:26:56.261Z,-0.10
2023-03-11T21:30:18.073Z,-0.20
2023-03-11T21:33:40.629Z,-0.10
2023-03-11T21:37:03.790Z,-0.10
2023-03-11T21:40:25.598Z,-0.10
2023-03-11T21:43:47.573Z,-0.10
2023-03-11T21:47:09.479Z,-0.20
2023-03-11T21:50:31.313Z,-0.20
2023-03-11T21:53:54.439Z,-0.20
2023-03-11T21:57:16.167Z,-0.30
2023-03-11T22:00:37.944Z,-0.30
2023-03-11T22:03:59.775Z,-0.30
2023-03-11T22:07:21.719Z,-0.40
2023-03-11T22:10:44.776Z,-0.40
2023-03-11T22:14:06.526Z,-0.50
2023-03-11T22:17:29.296Z,-0.50
2023-03-11T22:20:51.107Z,-0.50
2023-03-11T22:24:12.781Z,-0.40
2023-03-11T22:27:35.994Z,-0.50
2023-03-11T22:30:57.686Z,-0.60
2023-03-11T22:34:20.712Z,-0.60
2023-03-11T22:37:42.466Z,-0.70
2023-03-11T22:41:04.934Z,-0.70
2023-03-11T22:44:27.951Z,-0.80
2023-03-11T22:47:49.650Z,-0.80
2023-03-11T22:51:11.285Z,-0.90
2023-03-11T22:54:32.962Z,-0.90
2023-03-11T22:57:54.624Z,-0.90
2023-03-11T23:01:17.605Z,-0.90
2023-03-11T23:04:39.244Z,-0.90
2023-03-11T23:08:01.164Z,-0.90
2023-03-11T23:11:30.209Z,-0.90
2023-03-11T23:14:51.778Z,-0.80
2023-03-11T23:18:15.461Z,-0.70
2023-03-11T23:21:37.282Z,-0.70
2023-03-11T23:25:02.284Z,-0.70
2023-03-11T23:28:23.899Z,-0.70
2023-03-11T23:31:45.533Z,-0.80
2023-03-11T23:35:09.194Z,-0.80
2023-03-11T23:38:31.271Z,-0.80
2023-03-11T23:41:53.361Z,-0.90
2023-03-11T23:45:14.966Z,-0.90
2023-03-11T23:48:36.977Z,-0.90
2023-03-11T23:51:59.944Z,-0.90
2023-03-11T23:55:21.664Z,-1.00
2023-03-11T23:58:43.440Z,-1.00
